createdAt,value
2022-09-16T00:00:04.585Z,94.55
2022-09-16T00:01:04.603Z,95.03
2022-09-16T00:02:04.583Z,94.46
2022-09-16T00:03:04.541Z,94.46
2022-09-16T00:04:04.526Z,94.65
2022-09-16T00:05:04.509Z,94.65
2022-09-16T00:06:04.505Z,94.55
2022-09-16T00:07:04.479Z,94.46
2022-09-16T00:08:04.462Z,94.36
2022-09-16T00:09:04.448Z,94.65
2022-09-16T00:10:04.432Z,94.65
2022-09-16T00:11:04.419Z,94.65
2022-09-16T00:12:04.403Z,94.65
2022-09-16T00:13:04.387Z,94.84
2022-09-16T00:14:04.375Z,94.84
2022-09-16T00:15:04.356Z,94.65
2022-09-16T00:16:04.361Z,94.65
2022-09-16T00:17:04.329Z,94.55
2022-09-16T00:18:04.316Z,95.03
2022-09-16T00:19:04.299Z,94.65
2022-09-16T00:20:04.277Z,94.74
2022-09-16T00:21:04.266Z,94.84
2022-09-16T00:22:04.253Z,94.65
2022-09-16T00:23:04.234Z,94.65
2022-09-16T00:24:04.219Z,94.65
2022-09-16T00:25:04.211Z,94.65
2022-09-16T00:26:04.197Z,94.46
2022-09-16T00:27:04.174Z,94.65
2022-09-16T00:28:04.159Z,95.41
2022-09-16T00:29:04.144Z,95.22
2022-09-16T00:30:04.129Z,94.93
2022-09-16T00:31:04.181Z,95.12
2022-09-16T00:32:04.096Z,95.22
2022-09-16T00:33:04.083Z,95.03
2022-09-16T00:34:04.066Z,95.12
2022-09-16T00:35:04.055Z,95.03
2022-09-16T00:36:04.037Z,94.74
2022-09-16T00:37:04.032Z,95.03
2022-09-16T00:38:04.013Z,95.12
2022-09-16T00:39:03.990Z,95.89
2022-09-16T00:40:04.031Z,95.61
2022-09-16T00:41:03.958Z,95.70
2022-09-16T00:42:03.953Z,95.61
2022-09-16T00:43:03.937Z,95.70
2022-09-16T00:44:03.923Z,95.22
2022-09-16T00:45:03.903Z,95.32
2022-09-16T00:46:03.883Z,95.22
2022-09-16T00:47:03.967Z,95.61
2022-09-16T00:48:03.853Z,95.70
2022-09-16T00:49:03.839Z,95.98
2022-09-16T00:50:03.824Z,95.98
2022-09-16T00:51:03.809Z,96.08
2022-09-16T00:52:03.792Z,95.79
2022-09-16T00:53:03.777Z,95.79
2022-09-16T00:54:03.768Z,95.70
2022-09-16T00:55:03.752Z,95.89
2022-09-16T00:56:03.732Z,95.79
2022-09-16T00:57:03.720Z,95.98
2022-09-16T00:58:03.702Z,95.70
2022-09-16T00:59:03.687Z,96.17
2022-09-16T01:00:03.671Z,95.89
2022-09-16T01:01:03.724Z,96.08
2022-09-16T01:02:03.684Z,96.08
2022-09-16T01:03:03.626Z,96.27
2022-09-16T01:04:03.608Z,96.46
2022-09-16T01:05:03.603Z,96.66
2022-09-16T01:06:03.579Z,96.46
2022-09-16T01:07:03.566Z,96.37
2022-09-16T01:08:03.552Z,96.66
2022-09-16T01:09:03.537Z,96.66
2022-09-16T01:10:03.526Z,96.27
2022-09-16T01:11:03.507Z,96.75
2022-09-16T01:12:03.490Z,96.75
2022-09-16T01:13:03.475Z,96.56
2022-09-16T01:14:03.463Z,96.56
2022-09-16T01:15:03.449Z,96.56
2022-09-16T01:16:03.460Z,96.37
2022-09-16T01:17:03.413Z,96.56
2022-09-16T01:18:03.402Z,96.37
2022-09-16T01:19:03.383Z,96.75
2022-09-16T01:20:03.367Z,96.56
2022-09-16T01:21:03.361Z,96.37
2022-09-16T01:22:03.339Z,96.46
2022-09-16T01:23:03.322Z,96.75
2022-09-16T01:24:03.306Z,96.56
2022-09-16T01:25:03.301Z,96.27
2022-09-16T01:26:03.284Z,96.27
2022-09-16T01:27:03.263Z,96.56
2022-09-16T01:28:03.246Z,96.66
2022-09-16T01:29:03.233Z,96.84
2022-09-16T01:30:03.225Z,96.84
2022-09-16T01:31:03.254Z,96.56
2022-09-16T01:32:03.200Z,96.75
2022-09-16T01:33:03.204Z,96.46
2022-09-16T01:34:03.166Z,96.46
2022-09-16T01:35:03.163Z,96.37
2022-09-16T01:36:03.171Z,96.27
2022-09-16T01:37:03.113Z,96.94
2022-09-16T01:38:03.096Z,96.84
2022-09-16T01:39:03.085Z,97.03
2022-09-16T01:40:03.132Z,97.13
2022-09-16T01:41:03.050Z,97.03
2022-09-16T01:42:03.034Z,97.13
2022-09-16T01:43:03.019Z,96.94
2022-09-16T01:44:03.005Z,97.13
2022-09-16T01:45:02.993Z,97.13
2022-09-16T01:46:02.972Z,96.75
2022-09-16T01:47:02.962Z,96.75
2022-09-16T01:48:02.944Z,96.94
2022-09-16T01:49:02.930Z,96.75
2022-09-16T01:50:02.916Z,97.03
2022-09-16T01:51:02.898Z,97.13
2022-09-16T01:52:02.882Z,97.61
2022-09-16T01:53:02.865Z,97.42
2022-09-16T01:54:02.852Z,97.71
2022-09-16T01:55:02.837Z,97.42
2022-09-16T01:56:02.818Z,97.32
2022-09-16T01:57:02.809Z,97.80
2022-09-16T01:58:02.797Z,97.42
2022-09-16T01:59:02.777Z,97.52
2022-09-16T02:00:02.765Z,97.71
2022-09-16T02:01:02.763Z,97.80
2022-09-16T02:02:02.825Z,97.32
2022-09-16T02:03:02.736Z,97.61
2022-09-16T02:04:02.698Z,97.80
2022-09-16T02:05:02.687Z,97.32
2022-09-16T02:06:02.668Z,97.13
2022-09-16T02:07:02.656Z,97.99
2022-09-16T02:08:02.638Z,97.89
2022-09-16T02:09:02.624Z,97.89
2022-09-16T02:10:02.607Z,98.08
2022-09-16T02:11:02.592Z,97.61
2022-09-16T02:12:02.575Z,97.42
2022-09-16T02:13:02.567Z,97.32
2022-09-16T02:14:02.550Z,97.52
2022-09-16T02:15:02.532Z,97.80
2022-09-16T02:16:02.578Z,97.52
2022-09-16T02:17:02.508Z,97.61
2022-09-16T02:18:02.486Z,97.52
2022-09-16T02:19:02.473Z,97.71
2022-09-16T02:20:02.453Z,97.42
2022-09-16T02:21:02.439Z,97.42
2022-09-16T02:22:02.424Z,97.13
2022-09-16T02:23:02.410Z,96.94
2022-09-16T02:24:02.396Z,97.32
2022-09-16T02:25:02.379Z,96.94
2022-09-16T02:26:02.360Z,96.94
2022-09-16T02:27:02.351Z,96.94
2022-09-16T02:28:02.331Z,96.94
2022-09-16T02:29:02.317Z,96.94
2022-09-16T02:30:02.303Z,97.32
2022-09-16T02:31:02.321Z,97.42
2022-09-16T02:32:02.272Z,97.42
2022-09-16T02:33:02.260Z,97.42
2022-09-16T02:34:02.250Z,97.61
2022-09-16T02:35:02.225Z,97.42
2022-09-16T02:36:02.212Z,97.61
2022-09-16T02:37:02.195Z,97.80
2022-09-16T02:38:02.180Z,97.80
2022-09-16T02:39:02.166Z,97.61
2022-09-16T02:40:02.266Z,97.61
2022-09-16T02:41:02.133Z,97.80
2022-09-16T02:42:02.117Z,97.32
2022-09-16T02:43:02.104Z,97.52
2022-09-16T02:44:02.086Z,97.42
2022-09-16T02:45:02.075Z,97.61
2022-09-16T02:46:02.090Z,97.71
2022-09-16T02:47:02.040Z,97.80
2022-09-16T02:48:02.028Z,97.71
2022-09-16T02:49:02.014Z,97.80
2022-09-16T02:50:01.997Z,97.80
2022-09-16T02:51:01.982Z,97.52
2022-09-16T02:52:01.964Z,97.80
2022-09-16T02:53:01.951Z,97.52
2022-09-16T02:54:01.942Z,97.61
2022-09-16T02:55:01.920Z,97.52
2022-09-16T02:56:01.903Z,97.52
2022-09-16T02:57:01.891Z,97.42
2022-09-16T02:58:01.873Z,98.08
2022-09-16T02:59:01.864Z,97.61
2022-09-16T03:00:01.845Z,97.80
2022-09-16T03:01:01.834Z,97.61
2022-09-16T03:02:01.877Z,97.80
2022-09-16T03:03:01.837Z,97.99
2022-09-16T03:04:01.780Z,97.42
2022-09-16T03:05:01.766Z,97.80
2022-09-16T03:06:01.751Z,97.80
2022-09-16T03:07:01.735Z,97.99
2022-09-16T03:08:01.726Z,97.99
2022-09-16T03:09:01.706Z,98.28
2022-09-16T03:10:01.703Z,98.37
2022-09-16T03:11:01.675Z,98.18
2022-09-16T03:12:01.658Z,97.99
2022-09-16T03:13:01.649Z,98.18
2022-09-16T03:14:01.630Z,98.94
2022-09-16T03:15:01.612Z,98.66
2022-09-16T03:16:01.657Z,98.28
2022-09-16T03:17:01.586Z,98.28
2022-09-16T03:18:01.571Z,98.28
2022-09-16T03:19:01.558Z,97.89
2022-09-16T03:20:01.536Z,98.23
2022-09-16T03:21:01.530Z,98.13
2022-09-16T03:22:01.504Z,98.32
2022-09-16T03:23:01.491Z,98.32
2022-09-16T03:24:01.477Z,98.32
2022-09-16T03:25:01.461Z,98.23
2022-09-16T03:26:01.443Z,98.23
2022-09-16T03:27:01.428Z,98.23
2022-09-16T03:28:01.416Z,98.32
2022-09-16T03:29:01.399Z,98.32
2022-09-16T03:30:01.382Z,98.03
2022-09-16T03:31:01.386Z,98.32
2022-09-16T03:32:01.351Z,98.42
2022-09-16T03:33:01.344Z,98.42
2022-09-16T03:34:01.321Z,98.42
2022-09-16T03:35:01.307Z,98.42
2022-09-16T03:36:01.294Z,98.23
2022-09-16T03:37:01.281Z,98.32
2022-09-16T03:38:01.264Z,98.42
2022-09-16T03:39:01.248Z,98.23
2022-09-16T03:40:01.284Z,98.32
2022-09-16T03:41:01.220Z,98.23
2022-09-16T03:42:01.200Z,98.61
2022-09-16T03:43:01.183Z,98.32
2022-09-16T03:44:04.031Z,98.23
2022-09-16T03:45:01.157Z,98.23
2022-09-16T03:46:01.221Z,98.23
2022-09-16T03:47:01.122Z,97.94
2022-09-16T03:48:01.104Z,98.32
2022-09-16T03:49:01.092Z,98.61
2022-09-16T03:50:01.076Z,98.61
2022-09-16T03:51:01.062Z,98.80
2022-09-16T03:52:01.048Z,98.71
2022-09-16T03:53:01.029Z,98.52
2022-09-16T03:54:01.014Z,98.61
2022-09-16T03:55:00.998Z,98.32
2022-09-16T03:56:00.981Z,98.71
2022-09-16T03:57:00.972Z,98.32
2022-09-16T03:58:00.952Z,98.61
2022-09-16T03:59:00.936Z,99.08
2022-09-16T04:00:00.920Z,98.80
2022-09-16T04:01:00.907Z,98.99
2022-09-16T04:02:00.973Z,98.52
2022-09-16T04:03:00.901Z,98.56
2022-09-16T04:04:00.857Z,98.80
2022-09-16T04:05:00.843Z,98.61
2022-09-16T04:06:00.833Z,98.80
2022-09-16T04:07:00.812Z,99.28
2022-09-16T04:08:00.800Z,99.28
2022-09-16T04:09:00.803Z,98.56
2022-09-16T04:10:00.766Z,99.47
2022-09-16T04:11:00.751Z,99.37
2022-09-16T04:12:00.734Z,99.57
2022-09-16T04:13:00.741Z,99.47
2022-09-16T04:14:00.705Z,99.37
2022-09-16T04:15:01.131Z,99.52
2022-09-16T04:16:00.723Z,99.52
2022-09-16T04:17:00.657Z,99.13
2022-09-16T04:18:00.650Z,99.52
2022-09-16T04:19:00.625Z,99.32
2022-09-16T04:20:00.614Z,99.37
2022-09-16T04:21:00.613Z,99.37
2022-09-16T04:22:00.595Z,99.32
2022-09-16T04:23:00.564Z,99.13
2022-09-16T04:24:00.550Z,99.13
2022-09-16T04:25:00.534Z,98.85
2022-09-16T04:26:00.521Z,98.85
2022-09-16T04:27:00.500Z,99.04
2022-09-16T04:28:00.492Z,98.75
2022-09-16T04:29:00.473Z,98.75
2022-09-16T04:30:00.457Z,99.13
2022-09-16T04:31:00.478Z,98.75
2022-09-16T04:32:00.429Z,99.08
2022-09-16T04:33:00.418Z,99.23
2022-09-16T04:34:00.396Z,98.85
2022-09-16T04:35:00.380Z,98.85
2022-09-16T04:36:00.363Z,99.13
2022-09-16T04:37:00.350Z,98.75
2022-09-16T04:38:00.333Z,98.85
2022-09-16T04:39:00.314Z,98.94
2022-09-16T04:40:04.398Z,99.13
2022-09-16T04:41:00.283Z,98.85
2022-09-16T04:42:00.272Z,98.75
2022-09-16T04:43:00.255Z,98.75
2022-09-16T04:44:00.237Z,99.32
2022-09-16T04:45:00.221Z,98.94
2022-09-16T04:46:00.294Z,99.23
2022-09-16T04:47:00.190Z,98.94
2022-09-16T04:48:00.174Z,99.04
2022-09-16T04:49:00.162Z,99.23
2022-09-16T04:50:00.159Z,98.47
2022-09-16T04:51:00.128Z,98.37
2022-09-16T04:52:00.111Z,98.27
2022-09-16T04:53:00.097Z,98.27
2022-09-16T04:54:00.092Z,98.66
2022-09-16T04:55:00.069Z,98.94
2022-09-16T04:56:00.075Z,98.75
2022-09-16T04:57:00.032Z,98.85
2022-09-16T04:58:00.019Z,98.75
2022-09-16T04:59:00.002Z,98.27
2022-09-16T04:59:59.989Z,98.75
2022-09-16T05:00:59.973Z,98.56
2022-09-16T05:02:00.014Z,98.56
2022-09-16T05:02:59.997Z,98.66
2022-09-16T05:03:59.970Z,98.27
2022-09-16T05:04:59.909Z,98.37
2022-09-16T05:05:59.899Z,98.37
2022-09-16T05:06:59.876Z,98.47
2022-09-16T05:07:59.865Z,99.13
2022-09-16T05:08:59.849Z,99.23
2022-09-16T05:09:59.832Z,99.32
2022-09-16T05:10:59.817Z,98.85
2022-09-16T05:11:59.800Z,99.04
2022-09-16T05:12:59.783Z,99.32
2022-09-16T05:13:59.772Z,99.13
2022-09-16T05:14:59.766Z,99.13
2022-09-16T05:15:59.786Z,98.94
2022-09-16T05:16:59.720Z,98.94
2022-09-16T05:17:59.707Z,98.85
2022-09-16T05:18:59.691Z,98.47
2022-09-16T05:19:59.677Z,99.32
2022-09-16T05:20:59.659Z,99.23
2022-09-16T05:21:59.645Z,99.61
2022-09-16T05:22:59.631Z,99.23
2022-09-16T05:23:59.734Z,99.42
2022-09-16T05:24:59.599Z,99.32
2022-09-16T05:25:59.678Z,99.52
2022-09-16T05:26:59.564Z,99.13
2022-09-16T05:27:59.550Z,99.52
2022-09-16T05:28:59.535Z,99.71
2022-09-16T05:29:59.519Z,99.61
2022-09-16T05:30:59.567Z,99.32
2022-09-16T05:31:59.488Z,99.23
2022-09-16T05:32:59.470Z,99.23
2022-09-16T05:33:59.455Z,99.04
2022-09-16T05:34:59.445Z,99.13
2022-09-16T05:35:59.425Z,99.85
2022-09-16T05:36:59.415Z,99.23
2022-09-16T05:37:59.394Z,99.71
2022-09-16T05:39:25.731Z,99.80
2022-09-16T05:39:59.403Z,99.32
2022-09-16T05:40:59.345Z,99.99
2022-09-16T05:41:59.433Z,99.71
2022-09-16T05:42:59.325Z,99.42
2022-09-16T05:43:59.300Z,99.52
2022-09-16T05:44:59.283Z,99.99
2022-09-16T05:45:59.338Z,99.76
2022-09-16T05:46:59.258Z,99.99
2022-09-16T05:47:59.243Z,99.99
2022-09-16T05:48:59.221Z,99.85
2022-09-16T05:49:59.214Z,99.99
2022-09-16T05:50:59.189Z,99.85
2022-09-16T05:51:59.178Z,99.76
2022-09-16T05:52:59.160Z,99.47
2022-09-16T05:53:59.148Z,99.57
2022-09-16T05:54:59.134Z,99.57
2022-09-16T05:55:59.121Z,99.57
2022-09-16T05:57:01.256Z,99.57
2022-09-16T05:57:59.181Z,99.99
2022-09-16T05:58:59.064Z,99.99
2022-09-16T05:59:59.052Z,99.99
2022-09-16T06:00:59.038Z,99.99
2022-09-16T06:01:59.041Z,99.99
2022-09-16T06:02:59.020Z,99.66
2022-09-16T06:03:58.991Z,99.76
2022-09-16T06:04:58.974Z,99.85
2022-09-16T06:05:58.959Z,99.37
2022-09-16T06:06:58.940Z,99.85
2022-09-16T06:07:58.929Z,99.66
2022-09-16T06:08:58.916Z,99.37
2022-09-16T06:09:58.898Z,99.37
2022-09-16T06:10:58.881Z,99.28
2022-09-16T06:12:02.274Z,99.66
2022-09-16T06:12:58.852Z,99.08
2022-09-16T06:13:58.932Z,99.37
2022-09-16T06:14:58.818Z,99.28
2022-09-16T06:15:58.829Z,99.47
2022-09-16T06:16:58.789Z,99.37
2022-09-16T06:18:02.912Z,99.57
2022-09-16T06:18:58.757Z,99.37
2022-09-16T06:19:58.750Z,99.47
2022-09-16T06:20:58.726Z,99.37
2022-09-16T06:21:58.712Z,99.18
2022-09-16T06:22:58.708Z,99.47
2022-09-16T06:23:58.683Z,99.47
2022-09-16T06:24:58.663Z,99.18
2022-09-16T06:25:58.652Z,99.28
2022-09-16T06:26:58.632Z,99.28
2022-09-16T06:27:58.623Z,99.28
2022-09-16T06:28:58.601Z,99.08
2022-09-16T06:29:58.690Z,99.28
2022-09-16T06:30:58.609Z,99.66
2022-09-16T06:31:58.560Z,99.85
2022-09-16T06:32:58.542Z,99.57
2022-09-16T06:33:58.535Z,99.57
2022-09-16T06:34:58.512Z,99.76
2022-09-16T06:35:58.495Z,99.57
2022-09-16T06:36:58.482Z,99.37
2022-09-16T06:37:58.465Z,99.37
2022-09-16T06:38:58.447Z,99.66
2022-09-16T06:39:58.477Z,99.57
2022-09-16T06:40:58.425Z,99.37
2022-09-16T06:41:58.406Z,99.66
2022-09-16T06:43:00.296Z,99.66
2022-09-16T06:43:58.371Z,99.66
2022-09-16T06:44:58.360Z,99.57
2022-09-16T06:45:58.486Z,99.71
2022-09-16T06:46:58.328Z,99.57
2022-09-16T06:47:58.311Z,99.71
2022-09-16T06:49:00.383Z,99.33
2022-09-16T06:49:58.284Z,99.71
2022-09-16T06:50:58.264Z,99.14
2022-09-16T06:51:58.252Z,99.52
2022-09-16T06:52:58.236Z,99.62
2022-09-16T06:53:58.219Z,98.94
2022-09-16T06:54:58.202Z,99.23
2022-09-16T06:55:58.189Z,99.14
2022-09-16T06:56:58.180Z,98.61
2022-09-16T06:57:58.169Z,98.80
2022-09-16T06:58:58.139Z,98.80
2022-09-16T06:59:58.127Z,99.09
2022-09-16T07:00:58.186Z,98.71
2022-09-16T07:01:58.241Z,98.61
2022-09-16T07:02:58.081Z,98.80
2022-09-16T07:03:58.064Z,98.90
2022-09-16T07:04:58.049Z,98.09
2022-09-16T07:05:58.040Z,98.57
2022-09-16T07:07:09.339Z,98.57
2022-09-16T07:07:58.006Z,97.71
2022-09-16T07:08:57.991Z,97.90
2022-09-16T07:09:57.997Z,97.80
2022-09-16T07:10:57.957Z,97.52
2022-09-16T07:11:57.948Z,97.42
2022-09-16T07:12:57.930Z,97.23
2022-09-16T07:13:57.916Z,97.33
2022-09-16T07:14:57.903Z,97.13
2022-09-16T07:16:12.350Z,97.18
2022-09-16T07:16:57.883Z,97.28
2022-09-16T07:17:57.958Z,96.51
2022-09-16T07:19:00.962Z,96.70
2022-09-16T07:19:57.832Z,95.75
2022-09-16T07:20:57.810Z,96.03
2022-09-16T07:21:57.797Z,96.03
2022-09-16T07:22:57.781Z,95.75
2022-09-16T07:23:57.822Z,95.27
2022-09-16T07:24:57.754Z,94.98
2022-09-16T07:25:57.739Z,95.07
2022-09-16T07:26:57.722Z,94.60
2022-09-16T07:27:57.709Z,94.98
2022-09-16T07:28:57.693Z,94.79
2022-09-16T07:30:00.131Z,94.60
2022-09-16T07:30:57.727Z,94.89
2022-09-16T07:31:57.667Z,94.41
2022-09-16T07:32:57.635Z,94.02
2022-09-16T07:34:02.805Z,94.31
2022-09-16T07:34:57.611Z,94.21
2022-09-16T07:35:57.592Z,93.84
2022-09-16T07:36:57.591Z,93.84
2022-09-16T07:37:57.567Z,94.21
2022-09-16T07:38:57.614Z,93.93
2022-09-16T07:39:57.578Z,93.59
2022-09-16T07:40:57.516Z,93.59
2022-09-16T07:41:57.503Z,93.69
2022-09-16T07:42:57.487Z,93.21
2022-09-16T07:43:57.475Z,92.54
2022-09-16T07:44:57.460Z,93.02
2022-09-16T07:45:57.492Z,92.35
2022-09-16T07:46:57.429Z,91.72
2022-09-16T07:47:57.418Z,91.82
2022-09-16T07:48:57.485Z,91.58
2022-09-16T07:49:57.490Z,91.53
2022-09-16T07:50:57.371Z,91.34
2022-09-16T07:51:57.360Z,91.25
2022-09-16T07:52:57.355Z,90.29
2022-09-16T07:53:57.353Z,89.62
2022-09-16T07:54:57.315Z,89.43
2022-09-16T07:55:57.306Z,89.33
2022-09-16T07:56:57.285Z,89.33
2022-09-16T07:57:57.273Z,89.62
2022-09-16T07:58:57.420Z,89.23
2022-09-16T07:59:57.242Z,89.23
2022-09-16T08:01:01.938Z,89.23
2022-09-16T08:01:57.296Z,88.28
2022-09-16T08:02:57.298Z,87.99
2022-09-16T08:03:57.188Z,88.09
2022-09-16T08:04:57.182Z,88.09
2022-09-16T08:05:57.263Z,88.18
2022-09-16T08:06:57.145Z,88.28
2022-09-16T08:07:57.131Z,87.55
2022-09-16T08:08:59.769Z,87.65
2022-09-16T08:09:57.101Z,86.69
2022-09-16T08:10:57.087Z,86.79
2022-09-16T08:11:57.073Z,86.69
2022-09-16T08:12:57.062Z,86.60
2022-09-16T08:13:57.061Z,86.88
2022-09-16T08:14:57.036Z,86.02
2022-09-16T08:15:57.017Z,86.12
2022-09-16T08:16:57.072Z,86.02
2022-09-16T08:17:56.991Z,85.83
2022-09-16T08:18:56.982Z,86.50
2022-09-16T08:19:56.974Z,86.41
2022-09-16T08:20:56.959Z,86.31
2022-09-16T08:21:57.029Z,86.50
2022-09-16T08:22:58.031Z,86.98
2022-09-16T08:23:56.980Z,86.64
2022-09-16T08:24:56.891Z,86.83
2022-09-16T08:25:56.884Z,85.49
2022-09-16T08:27:56.857Z,84.48
2022-09-16T08:29:08.535Z,83.91
2022-09-16T08:29:56.830Z,83.91
2022-09-16T08:30:56.817Z,84.00
2022-09-16T08:31:56.849Z,83.75
2022-09-16T08:32:56.784Z,83.18
2022-09-16T08:33:56.773Z,83.27
2022-09-16T08:34:56.760Z,83.18
2022-09-16T08:35:56.754Z,83.27
2022-09-16T08:36:56.737Z,83.08
2022-09-16T08:37:56.818Z,83.18
2022-09-16T08:38:56.907Z,82.60
2022-09-16T08:39:56.709Z,82.41
2022-09-16T08:40:56.684Z,82.27
2022-09-16T08:41:56.666Z,81.89
2022-09-16T08:42:56.653Z,81.98
2022-09-16T08:43:56.707Z,81.31
2022-09-16T08:44:56.627Z,81.22
2022-09-16T08:45:56.643Z,81.02
2022-09-16T08:46:56.601Z,80.07
2022-09-16T08:47:56.584Z,80.35
2022-09-16T08:48:56.623Z,81.18
2022-09-16T08:49:56.560Z,81.18
2022-09-16T08:50:56.548Z,81.37
2022-09-16T08:51:56.535Z,81.60
2022-09-16T08:52:56.521Z,82.08
2022-09-16T08:53:56.622Z,82.18
2022-09-16T08:54:56.497Z,81.64
2022-09-16T08:55:56.480Z,80.34
2022-09-16T08:56:56.475Z,80.24
2022-09-16T08:57:56.499Z,79.71
2022-09-16T08:58:56.448Z,78.98
2022-09-16T08:59:56.429Z,79.11
2022-09-16T09:00:56.510Z,77.76
2022-09-16T09:01:56.741Z,76.75
2022-09-16T09:02:56.573Z,75.98
2022-09-16T09:03:56.384Z,75.34
2022-09-16T09:04:56.372Z,74.86
2022-09-16T09:05:56.360Z,74.09
2022-09-16T09:06:56.348Z,73.22
2022-09-16T09:07:56.354Z,73.51
2022-09-16T09:08:56.452Z,72.65
2022-09-16T09:09:56.429Z,72.30
2022-09-16T09:10:56.304Z,72.20
2022-09-16T09:11:57.069Z,71.62
2022-09-16T09:12:56.683Z,69.15
2022-09-16T09:13:56.273Z,69.35
2022-09-16T09:14:56.265Z,69.15
2022-09-16T09:15:56.248Z,68.80
2022-09-16T09:16:56.239Z,68.61
2022-09-16T09:17:56.230Z,68.26
2022-09-16T09:18:56.219Z,66.24
2022-09-16T09:19:56.211Z,65.66
2022-09-16T09:20:56.200Z,65.37
2022-09-16T09:21:56.188Z,65.66
2022-09-16T09:22:56.179Z,64.82
2022-09-16T09:23:56.169Z,64.53
2022-09-16T09:24:57.089Z,63.79
2022-09-16T09:25:56.258Z,63.02
2022-09-16T09:26:56.141Z,63.02
2022-09-16T09:27:56.130Z,63.05
2022-09-16T09:28:56.123Z,61.96
2022-09-16T09:29:56.112Z,62.05
2022-09-16T09:30:56.101Z,60.00
2022-09-16T09:31:56.182Z,60.06
2022-09-16T09:32:56.150Z,61.10
2022-09-16T09:33:56.074Z,61.38
2022-09-16T09:34:56.063Z,61.83
2022-09-16T09:35:56.051Z,62.38
2022-09-16T09:36:56.049Z,63.12
2022-09-16T09:37:56.031Z,63.22
2022-09-16T09:38:56.022Z,63.86
2022-09-16T09:39:56.047Z,63.73
2022-09-16T09:40:56.001Z,64.09
2022-09-16T09:41:56.096Z,64.47
2022-09-16T09:42:55.980Z,65.05
2022-09-16T09:43:56.013Z,65.69
2022-09-16T09:44:58.436Z,66.07
2022-09-16T09:45:55.993Z,66.36
2022-09-16T09:46:55.952Z,67.00
2022-09-16T09:47:55.921Z,67.67
2022-09-16T09:48:55.913Z,67.57
2022-09-16T09:49:55.898Z,67.76
2022-09-16T09:50:55.890Z,67.86
2022-09-16T09:51:55.870Z,67.99
2022-09-16T09:52:55.861Z,67.51
2022-09-16T09:53:55.850Z,67.07
2022-09-16T09:54:55.836Z,66.87
2022-09-16T09:55:55.823Z,66.30
2022-09-16T09:56:55.832Z,66.20
2022-09-16T09:57:55.912Z,66.00
2022-09-16T09:58:55.847Z,66.36
2022-09-16T09:59:55.776Z,66.55
2022-09-16T10:00:55.882Z,66.55
2022-09-16T10:01:55.782Z,66.36
2022-09-16T10:02:55.742Z,66.84
2022-09-16T10:03:55.729Z,66.74
2022-09-16T10:04:55.716Z,66.71
2022-09-16T10:05:55.708Z,67.09
2022-09-16T10:06:55.788Z,67.00
2022-09-16T10:07:55.679Z,67.57
2022-09-16T10:08:55.694Z,67.86
2022-09-16T10:09:55.671Z,67.76
2022-09-16T10:10:55.647Z,67.19
2022-09-16T10:11:55.630Z,67.38
2022-09-16T10:12:55.618Z,67.67
2022-09-16T10:13:55.808Z,67.19
2022-09-16T10:14:55.592Z,66.67
2022-09-16T10:15:55.884Z,66.86
2022-09-16T10:16:55.579Z,67.47
2022-09-16T10:17:55.554Z,67.09
2022-09-16T10:18:55.543Z,66.74
2022-09-16T10:19:55.533Z,66.20
2022-09-16T10:20:55.520Z,66.04
2022-09-16T10:21:55.506Z,64.63
2022-09-16T10:22:55.493Z,63.99
2022-09-16T10:23:55.497Z,63.34
2022-09-16T10:24:55.479Z,62.93
2022-09-16T10:25:55.475Z,61.90
2022-09-16T10:26:55.447Z,61.16
2022-09-16T10:27:55.435Z,60.10
2022-09-16T10:28:55.579Z,59.16
2022-09-16T10:29:55.524Z,58.29
2022-09-16T10:30:55.413Z,58.07
2022-09-16T10:31:55.478Z,58.07
2022-09-16T10:32:55.382Z,58.42
2022-09-16T10:33:55.371Z,59.00
2022-09-16T10:34:55.366Z,59.13
2022-09-16T10:35:55.346Z,59.23
2022-09-16T10:36:55.336Z,58.29
2022-09-16T10:37:55.325Z,57.42
2022-09-16T10:38:55.382Z,56.74
2022-09-16T10:39:55.361Z,56.16
2022-09-16T10:40:55.295Z,56.24
2022-09-16T10:41:55.284Z,56.04
2022-09-16T10:42:55.283Z,55.92
2022-09-16T10:43:55.263Z,56.11
2022-09-16T10:44:55.253Z,56.18
2022-09-16T10:45:55.413Z,57.14
2022-09-16T10:46:55.236Z,56.63
2022-09-16T10:47:55.426Z,57.09
2022-09-16T10:48:55.225Z,57.37
2022-09-16T10:49:55.299Z,56.96
2022-09-16T10:50:55.189Z,57.92
2022-09-16T10:51:55.177Z,58.95
2022-09-16T10:52:55.182Z,59.15
2022-09-16T10:53:55.289Z,59.50
2022-09-16T10:54:55.151Z,59.22
2022-09-16T10:55:55.131Z,59.22
2022-09-16T10:56:55.132Z,59.86
2022-09-16T10:57:55.113Z,59.57
2022-09-16T10:58:55.103Z,60.43
2022-09-16T10:59:55.085Z,60.34
2022-09-16T11:00:55.343Z,60.43
2022-09-16T11:01:55.695Z,61.30
2022-09-16T11:02:55.058Z,60.98
2022-09-16T11:03:55.043Z,61.27
2022-09-16T11:04:55.028Z,61.49
2022-09-16T11:05:55.016Z,61.30
2022-09-16T11:06:55.004Z,61.58
2022-09-16T11:07:54.991Z,61.71
2022-09-16T11:08:55.002Z,61.14
2022-09-16T11:09:54.966Z,60.49
2022-09-16T11:10:54.956Z,59.47
2022-09-16T11:11:54.947Z,58.89
2022-09-16T11:12:54.932Z,59.27
2022-09-16T11:13:54.920Z,59.47
2022-09-16T11:14:54.907Z,59.27
2022-09-16T11:15:54.932Z,59.27
2022-09-16T11:16:54.886Z,58.79
2022-09-16T11:17:54.985Z,58.79
2022-09-16T11:18:54.862Z,58.31
2022-09-16T11:19:54.847Z,58.60
2022-09-16T11:20:54.837Z,59.05
2022-09-16T11:21:54.829Z,59.34
2022-09-16T11:22:54.814Z,59.17
2022-09-16T11:23:54.803Z,59.47
2022-09-16T11:24:54.792Z,59.47
2022-09-16T11:25:54.777Z,59.47
2022-09-16T11:26:54.770Z,59.37
2022-09-16T11:27:54.767Z,59.40
2022-09-16T11:28:54.746Z,58.92
2022-09-16T11:29:54.732Z,58.05
2022-09-16T11:30:54.720Z,57.98
2022-09-16T11:31:54.843Z,58.17
2022-09-16T11:32:55.585Z,58.17
2022-09-16T11:33:54.797Z,57.89
2022-09-16T11:34:54.675Z,57.69
2022-09-16T11:35:54.662Z,57.79
2022-09-16T11:36:54.654Z,57.43
2022-09-16T11:37:54.643Z,56.66
2022-09-16T11:38:54.630Z,55.60
2022-09-16T11:39:54.699Z,55.31
2022-09-16T11:40:54.610Z,55.31
2022-09-16T11:41:54.597Z,55.12
2022-09-16T11:42:54.585Z,54.54
2022-09-16T11:43:54.590Z,54.44
2022-09-16T11:44:54.581Z,54.25
2022-09-16T11:45:54.559Z,55.22
2022-09-16T11:46:54.583Z,55.51
2022-09-16T11:47:54.534Z,55.41
2022-09-16T11:48:54.524Z,55.51
2022-09-16T11:49:54.625Z,55.60
2022-09-16T11:50:54.500Z,55.34
2022-09-16T11:51:54.489Z,55.01
2022-09-16T11:52:56.536Z,54.05
2022-09-16T11:53:54.975Z,53.59
2022-09-16T11:54:54.458Z,53.13
2022-09-16T11:55:54.450Z,53.13
2022-09-16T11:56:54.439Z,52.36
2022-09-16T11:57:54.428Z,52.75
2022-09-16T11:58:54.422Z,52.75
2022-09-16T11:59:54.410Z,52.45
2022-09-16T12:00:54.399Z,52.75
2022-09-16T12:01:54.431Z,52.65
2022-09-16T12:02:54.424Z,51.97
2022-09-16T12:03:54.369Z,51.97
2022-09-16T12:04:54.368Z,52.17
2022-09-16T12:05:54.477Z,52.00
2022-09-16T12:06:54.341Z,51.71
2022-09-16T12:07:54.338Z,50.28
2022-09-16T12:08:54.326Z,50.38
2022-09-16T12:09:54.318Z,49.39
2022-09-16T12:10:54.305Z,49.58
2022-09-16T12:11:54.300Z,50.55
2022-09-16T12:12:54.307Z,50.43
2022-09-16T12:14:05.532Z,50.81
2022-09-16T12:14:54.269Z,50.91
2022-09-16T12:15:54.261Z,51.01
2022-09-16T12:16:54.255Z,51.10
2022-09-16T12:17:54.241Z,51.39
2022-09-16T12:18:54.234Z,50.62
2022-09-16T12:19:54.226Z,50.35
2022-09-16T12:20:54.217Z,49.68
2022-09-16T12:21:57.810Z,49.85
2022-09-16T12:22:54.202Z,50.13
2022-09-16T12:23:54.194Z,50.71
2022-09-16T12:24:54.178Z,49.87
2022-09-16T12:25:54.170Z,49.99
2022-09-16T12:26:54.163Z,48.95
2022-09-16T12:27:54.151Z,47.96
2022-09-16T12:28:54.147Z,48.44
2022-09-16T12:29:54.139Z,48.16
2022-09-16T12:30:54.178Z,49.32
2022-09-16T12:31:54.116Z,48.57
2022-09-16T12:32:54.109Z,48.11
2022-09-16T12:33:54.144Z,48.22
2022-09-16T12:34:54.096Z,48.06
2022-09-16T12:35:54.087Z,46.82
2022-09-16T12:36:54.078Z,45.87
2022-09-16T12:37:54.186Z,43.86
2022-09-16T12:38:54.061Z,43.76
2022-09-16T12:39:54.089Z,43.18
2022-09-16T12:40:54.048Z,42.50
2022-09-16T12:41:54.045Z,43.06
2022-09-16T12:42:54.034Z,43.74
2022-09-16T12:43:59.031Z,43.33
2022-09-16T12:44:54.025Z,42.94
2022-09-16T12:45:54.016Z,43.29
2022-09-16T12:46:54.081Z,43.68
2022-09-16T12:47:54.002Z,44.43
2022-09-16T12:48:54.001Z,44.60
2022-09-16T12:49:53.985Z,45.83
2022-09-16T12:50:53.973Z,45.62
2022-09-16T12:51:53.982Z,45.89
2022-09-16T12:52:53.962Z,46.47